Home > Products > Valid Products > TAF

000
FTUS42 KCHS 070534
TAFSAV
TAF
KSAV 070534Z 0706/0806 VRB04KT P6SM FEW025 SCT100
     FM071800 18006KT P6SM SCT025 BKN050
     FM072000 16012KT P6SM SCT060
     FM080000 17005KT P6SM FEW060=



000
FTUS42 KCHS 070534
TAFCHS
TAF
KCHS 070534Z 0706/0806 VRB04KT P6SM FEW025
     FM071800 19013KT P6SM SCT035 SCT060
     FM080000 19005KT P6SM FEW100=



000
FTUS42 KCHS 070534
TAFCHS
TAF
KCHS 070534Z 0706/0806 VRB04KT P6SM FEW025
     FM071800 19013KT P6SM SCT035 SCT060
     FM080000 19005KT P6SM FEW100=



000
FTUS42 KCHS 070534
TAFSAV
TAF
KSAV 070534Z 0706/0806 VRB04KT P6SM FEW025 SCT100
     FM071800 18006KT P6SM SCT025 BKN050
     FM072000 16012KT P6SM SCT060
     FM080000 17005KT P6SM FEW060=



000
FTUS42 KCHS 070056 AAB
TAFSAV
TAF AMD
KSAV 070056Z 0701/0724 VRB04KT P6SM VCSH SCT025 SCT060 BKN080
      TEMPO 0701/0702 6SM -SHRA
     FM070300 VRB04KT P6SM SCT025 SCT120
     FM072000 16012KT P6SM SCT040 SCT060=



000
FTUS42 KCHS 070006 AAA
TAFSAV
TAF AMD
KSAV 070006Z 0700/0724 VRB05KT 6SM -TSRA SCT015 BKN040CB
     FM070100 VRB04KT P6SM SCT020 BKN250
     FM072000 16012KT P6SM SCT040 SCT060=



000
FTUS42 KCHS 070006 AAA
TAFSAV
TAF AMD
KSAV 070006Z 0700/0724 VRB05KT 6SM -TSRA SCT015 BKN040CB
     FM070100 VRB04KT P6SM SCT020 BKN250
     FM072000 16012KT P6SM SCT040 SCT060=



000
FTUS42 KCHS 062326
TAFCHS
TAF
KCHS 062326Z 0700/0724 19010KT P6SM SCT030
     FM070400 VRB05KT P6SM SCT025
     FM071800 19013KT P6SM SCT035 SCT060=



000
FTUS42 KCHS 062326
TAFSAV
TAF
KSAV 062326Z 0700/0724 16010KT 6SM -TSRA SCT040CB BKN080
      TEMPO 0700/0701 VRB20G25KT 1SM +TSRA SCT025 BKN035CB
     FM070100 VRB04KT P6SM SCT030 SCT100
     FM072000 16012KT P6SM SCT040 SCT060=



000
FTUS42 KCHS 062207 AAB
TAFSAV
TAF AMD
KSAV 062207Z 0622/0718 16008KT P6SM VCTS SCT040CB BKN080
      TEMPO 0622/0624 VRB15G20KT 4SM TSRA SCT025 BKN035CB
     FM070100 VRB04KT P6SM SCT030 SCT100=



000
FTUS42 KCHS 062107 AAA
TAFSAV
TAF AMD
KSAV 062107Z 0621/0718 26007KT P6SM SCT040 BKN060
     FM062130 18008KT P6SM VCSH SCT040 BKN060
     FM070000 VRB03KT P6SM FEW040=



000
FTUS42 KCHS 061721
TAFCHS
TAF
KCHS 061721Z 0618/0718 23006KT P6SM SCT040
     FM062000 19010KT P6SM SCT040
     FM070400 25003KT P6SM FEW040=



000
FTUS42 KCHS 061721
TAFSAV
TAF
KSAV 061721Z 0618/0718 24007KT P6SM SCT040
     FM062100 16008KT P6SM SCT040
     FM070000 VRB03KT P6SM FEW040=



000
FTUS42 KCHS 061518 AAC
TAFCHS
TAF AMD
KCHS 061518Z 0615/0712 26006KT P6SM SCT015
      TEMPO 0615/0617 BKN015
     FM061900 19010KT P6SM VCTS SCT035CB BKN060
     FM062200 19008KT P6SM SCT060 BKN150
     FM070400 25003KT P6SM SCT030 BKN100=



000
FTUS42 KCHS 061321 AAB
TAFCHS
TAF AMD
KCHS 061321Z 0613/0712 26005KT P6SM OVC004
     FM061430 26005KT P6SM SCT015
     FM061500 25006KT P6SM FEW035 SCT150
     FM061900 19010KT P6SM VCTS SCT035CB BKN060
     FM062200 19008KT P6SM SCT060 BKN150
     FM070400 25003KT P6SM SCT030 BKN100=



000
FTUS42 KCHS 061225 AAA
TAFSAV
TAF AMD
KSAV 061225Z 0612/0712 26003KT P6SM OVC006
      TEMPO 0613/0614 SCT006 BKN018
     FM061400 26006KT P6SM SCT035
     FM061900 18008KT P6SM VCTS SCT035CB BKN060
     FM070000 VRB03KT P6SM SCT050 BKN100=



000
FTUS42 KCHS 061224 AAA
TAFCHS
TAF AMD
KCHS 061224Z 0612/0712 26005KT P6SM OVC004
     FM061330 26005KT P6SM SCT015
     FM061500 25006KT P6SM FEW035 SCT150
     FM061900 19010KT P6SM VCTS SCT035CB BKN060
     FM062200 19008KT P6SM SCT060 BKN150
     FM070400 25003KT P6SM SCT030 BKN100=



000
FTUS42 KCHS 061138
TAFCHS
TAF
KCHS 061138Z 0612/0712 26005KT 5SM BR BKN006
      TEMPO 0612/0613 2SM BR BKN004
     FM061330 26005KT P6SM BKN015
     FM061500 25006KT P6SM FEW035 SCT150
     FM061900 19010KT P6SM VCTS SCT035CB BKN060
     FM062200 19008KT P6SM SCT060 BKN150
     FM070400 25003KT P6SM SCT030 BKN100=



000
FTUS42 KCHS 061138
TAFSAV
TAF
KSAV 061138Z 0612/0712 26003KT 5SM BR BKN004
     FM061330 26005KT P6SM BKN015
     FM061500 26006KT P6SM SCT035
     FM061900 18008KT P6SM VCTS SCT035CB BKN060
     FM070000 VRB03KT P6SM SCT050 BKN100=



000
FTUS42 KCHS 061138
TAFSAV
TAF
KSAV 061138Z 0612/0712 26003KT 5SM BR BKN004
     FM061330 26005KT P6SM BKN015
     FM061500 26006KT P6SM SCT035
     FM061900 18008KT P6SM VCTS SCT035CB BKN060
     FM070000 VRB03KT P6SM SCT050 BKN100=



000
FTUS42 KCHS 061138
TAFCHS
TAF
KCHS 061138Z 0612/0712 26005KT 5SM BR BKN006
      TEMPO 0612/0613 2SM BR BKN004
     FM061330 26005KT P6SM BKN015
     FM061500 25006KT P6SM FEW035 SCT150
     FM061900 19010KT P6SM VCTS SCT035CB BKN060
     FM062200 19008KT P6SM SCT060 BKN150
     FM070400 25003KT P6SM SCT030 BKN100=



000
FTUS42 KCHS 061117 AAB
TAFSAV
TAF AMD
KSAV 061117Z 0611/0706 27003KT 5SM BR BKN003
      TEMPO 0611/0612 2SM BR
     FM061300 27006KT P6SM SCT025
     FM061700 23010KT P6SM VCTS SCT035CB SCT100 BKN150
     FM062200 19007KT P6SM SCT050 BKN100=



000
FTUS42 KCHS 061117 AAB
TAFSAV
TAF AMD
KSAV 061117Z 0611/0706 27003KT 5SM BR BKN003
      TEMPO 0611/0612 2SM BR
     FM061300 27006KT P6SM SCT025
     FM061700 23010KT P6SM VCTS SCT035CB SCT100 BKN150
     FM062200 19007KT P6SM SCT050 BKN100=



000
FTUS42 KCHS 060817 AAA
TAFSAV
TAF AMD
KSAV 060817Z 0608/0706 24003KT P6SM BKN003
     FM061300 27006KT P6SM SCT025
     FM061700 23010KT P6SM VCTS SCT035CB SCT100 BKN150
     FM062200 19007KT P6SM SCT050 BKN100=



000
FTUS42 KCHS 060554 CCA
TAFSAV
TAF COR
KSAV 060554Z 0606/0706 24005KT P6SM FEW003 BKN250
      TEMPO 0606/0610 BKN003
     FM061700 23010KT P6SM VCTS SCT035CB SCT100 BKN150
     FM062200 19007KT P6SM SCT050 BKN100=



000
FTUS42 KCHS 060529
TAFCHS
TAF
KCHS 060529Z 0606/0706 24005KT P6SM FEW015 BKN250
     FM061800 20012KT P6SM VCTS SCT035CB SCT100 BKN150
     FM062100 20009KT P6SM SCT050 BKN100=



000
FTUS42 KCHS 060529
TAFSAV
TAF
KSAV 060529Z 0606/0706 24005KT P6SM FEW006 SCT020 BKN250
     FM061700 23010KT P6SM VCTS SCT035CB SCT100 BKN150
     FM062200 19007KT P6SM SCT050 BKN100=



000
FTUS42 KCHS 060529
TAFCHS
TAF
KCHS 060529Z 0606/0706 24005KT P6SM FEW015 BKN250
     FM061800 20012KT P6SM VCTS SCT035CB SCT100 BKN150
     FM062100 20009KT P6SM SCT050 BKN100=



000
FTUS42 KCHS 060529
TAFSAV
TAF
KSAV 060529Z 0606/0706 24005KT P6SM FEW006 SCT020 BKN250
     FM061700 23010KT P6SM VCTS SCT035CB SCT100 BKN150
     FM062200 19007KT P6SM SCT050 BKN100=



000
FTUS42 KCHS 060203 AAA
TAFSAV
TAF AMD
KSAV 060203Z 0602/0624 VRB04KT P6SM FEW006 SCT020 BKN250
     FM061700 23010KT P6SM VCTS SCT035CB SCT100 BKN150=



000
FTUS42 KCHS 060202 AAA
TAFCHS
TAF AMD
KCHS 060202Z 0602/0624 VRB06KT P6SM FEW010 SCT020 BKN250
     FM061800 20012KT P6SM VCTS SCT035CB SCT100 BKN150=



000
FTUS42 KCHS 052325
TAFSAV
TAF
KSAV 052325Z 0600/0624 20008KT P6SM SCT035 SCT100 OVC150
     FM060600 VRB05KT P6SM SCT030 BKN250
     FM061700 23010KT P6SM VCTS SCT035CB SCT100 BKN150=



000
FTUS42 KCHS 052325
TAFCHS
TAF
KCHS 052325Z 0600/0624 21010KT P6SM SCT035 SCT100 BKN150
      TEMPO 0600/0601 VRB15G20KT 6SM -SHRA SCT025 BKN035
     FM060600 VRB06KT P6SM SCT030 BKN250
     FM061800 20012KT P6SM VCTS SCT035CB SCT100 BKN150=



000
FTUS42 KCHS 052248 AAB
TAFSAV
TAF AMD
KSAV 052248Z 0523/0618 22008KT P6SM SCT035 SCT100 BKN150
      TEMPO 0523/0601 -SHRA
     FM060200 VRB05KT P6SM SCT030 BKN150=



000
FTUS42 KCHS 052246 AAC
TAFCHS
TAF AMD
KCHS 052246Z 0523/0618 19012KT P6SM SCT035 SCT120 BKN250
      TEMPO 0523/0601 VRB20G25KT 6SM -SHRA SCT025 BKN035
     FM060200 VRB05KT P6SM SCT030 BKN150=



000
FTUS42 KCHS 052246 AAC
TAFCHS
TAF AMD
KCHS 052246Z 0523/0618 19012KT P6SM SCT035 SCT120 BKN250
      TEMPO 0523/0601 VRB20G25KT 6SM -SHRA SCT025 BKN035
     FM060200 VRB05KT P6SM SCT030 BKN150=



000
FTUS42 KCHS 052023 AAB
TAFCHS
TAF AMD
KCHS 052023Z 0520/0618 25008KT P6SM SCT035
      TEMPO 0522/0524 VRB15G25KT 3SM TSRA BKN035CB
     FM060000 21007KT P6SM FEW035 BKN120
     FM061200 24006KT P6SM SCT060=



000
FTUS42 KCHS 052000 AAA
TAFSAV
TAF AMD
KSAV 052000Z 0520/0618 20010KT P6SM VCTS SCT030 BKN040CB
      TEMPO 0520/0522 VRB15G25KT 2SM TSRA SCT015 BKN030CB
     FM052300 20007KT P6SM FEW035 BKN120
     FM061200 25005KT P6SM SCT060=



000
FTUS42 KCHS 051731
TAFCHS
TAF
KCHS 051731Z 0518/0618 20011G18KT P6SM VCTS SCT030 BKN050CB
      TEMPO 0518/0522 VRB15G25KT 3SM TSRA BKN035CB
     FM052300 21007KT P6SM FEW035 BKN120
     FM061200 24006KT P6SM SCT060=



000
FTUS42 KCHS 051731
TAFSAV
TAF
KSAV 051731Z 0518/0618 20010KT P6SM VCTS SCT030 BKN040CB
      TEMPO 0518/0521 VRB15G25KT 3SM TSRA BKN030CB
     FM052300 20007KT P6SM FEW035 BKN120
     FM061200 25005KT P6SM SCT060=



000
FTUS42 KCHS 051636 AAA
TAFSAV
TAF AMD
KSAV 051636Z 0517/0612 20010KT P6SM VCTS SCT035 BKN040CB
      TEMPO 0517/0521 VRB15G25KT 3SM TSRA BKN030CB
     FM052300 20007KT P6SM FEW035 BKN120=



000
FTUS42 KCHS 051636 AAA
TAFSAV
TAF AMD
KSAV 051636Z 0517/0612 20010KT P6SM VCTS SCT035 BKN040CB
      TEMPO 0517/0521 VRB15G25KT 3SM TSRA BKN030CB
     FM052300 20007KT P6SM FEW035 BKN120=



000
FTUS42 KCHS 051137
TAFSAV
TAF
KSAV 051137Z 0512/0612 VRB03KT P6SM SCT150
     FM051400 23007KT P6SM SCT050
     FM051800 20010KT P6SM VCTS SCT035 BKN050CB
      TEMPO 0518/0522 VRB15G25KT 3SM TSRA BKN035CB
     FM052300 20007KT P6SM FEW035 BKN120=



000
FTUS42 KCHS 051137
TAFSAV
TAF
KSAV 051137Z 0512/0612 VRB03KT P6SM SCT150
     FM051400 23007KT P6SM SCT050
     FM051800 20010KT P6SM VCTS SCT035 BKN050CB
      TEMPO 0518/0522 VRB15G25KT 3SM TSRA BKN035CB
     FM052300 20007KT P6SM FEW035 BKN120=



000
FTUS42 KCHS 051137
TAFCHS
TAF
KCHS 051137Z 0512/0612 23005KT P6SM SCT150
     FM051400 23008KT P6SM SCT050
     FM051800 20011G18KT P6SM VCTS SCT035 BKN050CB
      TEMPO 0518/0522 VRB15G25KT 3SM TSRA BKN035CB
     FM052300 21007KT P6SM FEW035 BKN120=



000
FTUS42 KCHS 051137
TAFCHS
TAF
KCHS 051137Z 0512/0612 23005KT P6SM SCT150
     FM051400 23008KT P6SM SCT050
     FM051800 20011G18KT P6SM VCTS SCT035 BKN050CB
      TEMPO 0518/0522 VRB15G25KT 3SM TSRA BKN035CB
     FM052300 21007KT P6SM FEW035 BKN120=



000
FTUS42 KCHS 050529
TAFSAV
TAF
KSAV 050529Z 0506/0606 21005KT P6SM SCT150
     FM051400 25008KT P6SM SCT050
     FM051800 22010KT P6SM VCTS SCT035 BKN050CB
     FM052300 21007KT P6SM FEW035 BKN120=



000
FTUS42 KCHS 050529
TAFCHS
TAF
KCHS 050529Z 0506/0606 23005KT P6SM SCT150
     FM051400 23008KT P6SM SCT050
     FM051800 20011KT P6SM VCTS SCT035 BKN050CB
     FM052300 20007KT P6SM FEW035 BKN120=



000
FTUS42 KCHS 042320
TAFSAV
TAF
KSAV 042320Z 0500/0524 20010KT P6SM SCT060 BKN080
     FM050100 20005KT P6SM SCT060 BKN150
     FM051500 24006KT P6SM SCT060 BKN120
     FM052000 19010KT P6SM SCT050=



000
FTUS42 KCHS 042320
TAFSAV
TAF
KSAV 042320Z 0500/0524 20010KT P6SM SCT060 BKN080
     FM050100 20005KT P6SM SCT060 BKN150
     FM051500 24006KT P6SM SCT060 BKN120
     FM052000 19010KT P6SM SCT050=



000
FTUS42 KCHS 042320
TAFCHS
TAF
KCHS 042320Z 0500/0524 25010G16KT P6SM SCT045 BKN080
      TEMPO 0500/0501 VRB20G30KT 3SM TSRA SCT025CB BKN040
     FM050100 20007KT P6SM SCT060 BKN150
     FM051500 23008KT P6SM SCT060
     FM051900 19010G16KT P6SM SCT050=



000
FTUS42 KCHS 042320
TAFCHS
TAF
KCHS 042320Z 0500/0524 25010G16KT P6SM SCT045 BKN080
      TEMPO 0500/0501 VRB20G30KT 3SM TSRA SCT025CB BKN040
     FM050100 20007KT P6SM SCT060 BKN150
     FM051500 23008KT P6SM SCT060
     FM051900 19010G16KT P6SM SCT050=



000
FTUS42 KCHS 042300 AAB
TAFSAV
TAF AMD
KSAV 042300Z 0423/0518 21009KT P6SM VCTS SCT060CB BKN080
      TEMPO 0423/0424 VRB10G20KT 6SM -SHRA SCT050
     FM050000 20005KT P6SM SCT060 BKN150
     FM051500 24006KT P6SM SCT060 BKN120=



000
FTUS42 KCHS 042300 AAB
TAFSAV
TAF AMD
KSAV 042300Z 0423/0518 21009KT P6SM VCTS SCT060CB BKN080
      TEMPO 0423/0424 VRB10G20KT 6SM -SHRA SCT050
     FM050000 20005KT P6SM SCT060 BKN150
     FM051500 24006KT P6SM SCT060 BKN120=



000
FTUS42 KCHS 042258 AAC
TAFCHS
TAF AMD
KCHS 042258Z 0423/0518 25010G16KT P6SM SCT045 BKN080
      TEMPO 0423/0501 VRB20G30KT 3SM TSRA SCT025CB BKN040
     FM050100 20007KT P6SM SCT060 BKN150
     FM051500 23008KT P6SM SCT060=



000
FTUS42 KCHS 042258 AAC
TAFCHS
TAF AMD
KCHS 042258Z 0423/0518 25010G16KT P6SM SCT045 BKN080
      TEMPO 0423/0501 VRB20G30KT 3SM TSRA SCT025CB BKN040
     FM050100 20007KT P6SM SCT060 BKN150
     FM051500 23008KT P6SM SCT060=



000
FTUS42 KCHS 042102 AAB
TAFCHS
TAF AMD
KCHS 042102Z 0421/0518 25010G16KT P6SM SCT045 BKN080
      TEMPO 0422/0501 3SM TSRA SCT025CB BKN045
     FM050100 20007KT P6SM SCT060 BKN150
     FM051500 23008KT P6SM SCT060=



000
FTUS42 KCHS 042043 AAA
TAFSAV
TAF AMD
KSAV 042043Z 0421/0518 21009KT P6SM VCTS SCT045CB BKN080
      TEMPO 0421/0424 VRB20G35KT 3SM TSRA SCT025CB BKN045
     FM050000 20005KT P6SM SCT060 BKN150
     FM051500 24006KT P6SM SCT060 BKN120=



000
FTUS42 KCHS 041739
TAFCHS
TAF
KCHS 041739Z 0418/0518 25012G18KT P6SM SCT045 BKN080
      TEMPO 0421/0501 3SM TSRA SCT025CB BKN045
     FM050100 20007KT P6SM SCT060 BKN150
     FM051500 23008KT P6SM SCT060=



000
FTUS42 KCHS 041739
TAFSAV
TAF
KSAV 041739Z 0418/0518 25010KT P6SM SCT045 BKN150
     FM042000 21009KT P6SM VCTS SCT045CB BKN080
      TEMPO 0420/0424 3SM TSRA SCT025CB BKN045
     FM050000 20005KT P6SM SCT060 BKN150
     FM051500 24006KT P6SM SCT060 BKN120=



000
FTUS42 KCHS 041132
TAFSAV
TAF
KSAV 041132Z 0412/0512 25007KT P6SM FEW045 SCT250
     FM041600 25010KT P6SM FEW045 SCT080
     FM042000 21009KT P6SM VCTS SCT045CB BKN080
      TEMPO 0420/0424 3SM TSRA SCT025CB BKN045
     FM050000 20005KT P6SM SCT060 BKN150=



000
FTUS42 KCHS 041132
TAFCHS
TAF
KCHS 041132Z 0412/0512 VRB05KT P6SM SCT045
     FM041400 26009KT P6SM FEW045 SCT250
     FM041600 25012G18KT P6SM VCTS SCT045CB BKN080
      TEMPO 0420/0424 3SM TSRA SCT025CB BKN045
     FM050000 21007KT P6SM SCT060 BKN150=



000
FTUS42 KCHS 041132
TAFSAV
TAF
KSAV 041132Z 0412/0512 25007KT P6SM FEW045 SCT250
     FM041600 25010KT P6SM FEW045 SCT080
     FM042000 21009KT P6SM VCTS SCT045CB BKN080
      TEMPO 0420/0424 3SM TSRA SCT025CB BKN045
     FM050000 20005KT P6SM SCT060 BKN150=



000
FTUS42 KCHS 041132
TAFCHS
TAF
KCHS 041132Z 0412/0512 VRB05KT P6SM SCT045
     FM041400 26009KT P6SM FEW045 SCT250
     FM041600 25012G18KT P6SM VCTS SCT045CB BKN080
      TEMPO 0420/0424 3SM TSRA SCT025CB BKN045
     FM050000 21007KT P6SM SCT060 BKN150=



    US Dept of Commerce
    National Oceanic and Atmospheric Administration
    National Weather Service
    1325 East West Highway
    Silver Spring, MD 20910
    Page Author: NWS Internet Services Team
Disclaimer
Information Quality
Credits
Glossary
Privacy Policy
Freedom of Information Act (FOIA)
About Us
Career Opportunities